createdAt,value
2023-03-11T00:00:02.561Z,95798.53
2023-03-11T00:04:07.258Z,95809.09
2023-03-11T00:08:14.561Z,95849.31
2023-03-11T00:12:17.776Z,95851.88
2023-03-11T00:16:21.316Z,95872.50
2023-03-11T00:20:29.151Z,95877.97
2023-03-11T00:24:32.151Z,95883.25
2023-03-11T00:28:35.457Z,95897.75
2023-03-11T00:32:38.717Z,95906.69
2023-03-11T00:36:43.282Z,95913.66
2023-03-11T00:40:48.086Z,95943.50
2023-03-11T00:44:51.016Z,95935.13
2023-03-11T00:48:54.870Z,95946.69
2023-03-11T00:52:59.982Z,95982.47
2023-03-11T00:57:02.925Z,95997.84
2023-03-11T01:01:12.083Z,96022.06
2023-03-11T01:05:15.817Z,96010.97
2023-03-11T01:09:20.434Z,96036.97
2023-03-11T01:13:23.803Z,96041.25
2023-03-11T01:17:26.849Z,96035.53
2023-03-11T01:21:30.218Z,96040.50
2023-03-11T01:25:34.966Z,96042.25
2023-03-11T01:29:37.857Z,96040.09
2023-03-11T01:33:41.514Z,96036.31
2023-03-11T01:37:44.979Z,96073.91
2023-03-11T01:41:49.522Z,96087.38
2023-03-11T01:46:13.967Z,96086.78
2023-03-11T01:50:17.302Z,96090.56
2023-03-11T01:54:23.127Z,96103.25
2023-03-11T01:58:32.308Z,96101.31
2023-03-11T02:02:38.208Z,96110.41
2023-03-11T02:06:41.972Z,96117.50
2023-03-11T02:10:46.192Z,96126.41
2023-03-11T02:14:54.698Z,96138.50
2023-03-11T02:19:00.196Z,96137.06
2023-03-11T02:23:04.241Z,96143.88
2023-03-11T02:27:10.807Z,96166.69
2023-03-11T02:31:14.744Z,96157.00
2023-03-11T02:35:18.712Z,96162.50
2023-03-11T02:39:31.786Z,96160.59
2023-03-11T02:43:42.072Z,96154.47
2023-03-11T02:47:45.785Z,96172.88
2023-03-11T02:51:49.023Z,96178.84
2023-03-11T02:55:52.158Z,96178.22
2023-03-11T02:59:56.403Z,96178.41
2023-03-11T03:03:59.735Z,96179.53
2023-03-11T03:08:03.969Z,96196.19
2023-03-11T03:12:07.934Z,96199.06
2023-03-11T03:16:12.339Z,96204.84
2023-03-11T03:20:16.430Z,96210.31
2023-03-11T03:24:19.543Z,96230.47
2023-03-11T03:28:22.781Z,96229.66
2023-03-11T03:32:27.222Z,96221.28
2023-03-11T03:36:32.254Z,96218.38
2023-03-11T03:40:35.430Z,96226.63
2023-03-11T03:44:38.321Z,96239.69
2023-03-11T03:48:43.532Z,96225.34
2023-03-11T03:52:46.927Z,96224.50
2023-03-11T03:56:50.581Z,96231.63
2023-03-11T04:00:57.426Z,96235.16
2023-03-11T04:05:02.423Z,96238.03
2023-03-11T04:09:05.678Z,96264.69
2023-03-11T04:13:09.058Z,96260.34
2023-03-11T04:17:13.701Z,96261.47
2023-03-11T04:21:18.800Z,96260.47
2023-03-11T04:25:21.965Z,96256.13
2023-03-11T04:29:25.177Z,96247.91
2023-03-11T04:33:28.618Z,96259.19
2023-03-11T04:37:33.873Z,96260.47
2023-03-11T04:41:37.830Z,96262.38
2023-03-11T04:45:41.428Z,96256.31
2023-03-11T04:49:44.900Z,96281.78
2023-03-11T04:53:49.690Z,96280.50
2023-03-11T04:57:52.868Z,96269.88
2023-03-11T05:01:55.817Z,96287.94
2023-03-11T05:06:00.465Z,96286.13
2023-03-11T05:10:06.461Z,96291.72
2023-03-11T05:14:09.755Z,96283.31
2023-03-11T05:18:12.686Z,96284.91
2023-03-11T05:22:16.212Z,96288.59
2023-03-11T05:26:20.506Z,96287.78
2023-03-11T05:30:24.235Z,96290.69
2023-03-11T05:34:27.499Z,96297.28
2023-03-11T05:38:30.719Z,96296.47
2023-03-11T05:42:35.085Z,96303.59
2023-03-11T05:46:38.514Z,96312.19
2023-03-11T05:50:41.843Z,96314.94
2023-03-11T05:54:45.335Z,96316.94
2023-03-11T05:58:50.887Z,96325.56
2023-03-11T06:02:54.184Z,96339.59
2023-03-11T06:06:57.064Z,96328.81
2023-03-11T06:11:03.983Z,96328.34
2023-03-11T06:15:09.988Z,96344.31
2023-03-11T06:19:14.421Z,96342.41
2023-03-11T06:23:17.332Z,96349.16
2023-03-11T06:27:20.725Z,96359.03
2023-03-11T06:31:27.204Z,96369.50
2023-03-11T06:35:30.819Z,96376.56
2023-03-11T06:44:08.635Z,96394.16
2023-03-11T06:48:13.211Z,96395.00
2023-03-11T06:52:16.558Z,96400.94
2023-03-11T06:56:20.218Z,96403.56
2023-03-11T07:00:23.593Z,96416.03
2023-03-11T07:04:28.155Z,96418.16
2023-03-11T07:08:31.759Z,96417.84
2023-03-11T07:12:34.657Z,96423.06
2023-03-11T07:16:41.132Z,96446.34
2023-03-11T07:20:45.488Z,96450.25
2023-03-11T07:24:49.691Z,96457.69
2023-03-11T07:28:52.946Z,96457.22
2023-03-11T07:32:56.514Z,96469.00
2023-03-11T07:37:01.046Z,96466.13
2023-03-11T07:41:04.309Z,96482.91
2023-03-11T07:45:08.373Z,96476.47
2023-03-11T07:49:11.988Z,96474.84
2023-03-11T07:53:16.557Z,96480.66
2023-03-11T07:57:20.033Z,96484.69
2023-03-11T08:01:27.287Z,96495.53
2023-03-11T08:05:34.729Z,96483.22
2023-03-11T08:09:39.263Z,96508.75
2023-03-11T08:13:42.717Z,96502.91
2023-03-11T08:17:45.615Z,96504.88
2023-03-11T08:21:48.648Z,96512.97
2023-03-11T08:25:53.300Z,96512.31
2023-03-11T08:29:56.696Z,96504.22
2023-03-11T08:34:02.716Z,96520.25
2023-03-11T08:38:06.122Z,96519.13
2023-03-11T08:42:10.545Z,96516.53
2023-03-11T08:46:19.223Z,96518.63
2023-03-11T08:50:22.292Z,96523.34
2023-03-11T08:54:25.657Z,96525.63
2023-03-11T08:58:32.573Z,96535.31
2023-03-11T09:02:36.058Z,96548.88
2023-03-11T09:06:42.659Z,96573.78
2023-03-11T09:10:45.962Z,96581.38
2023-03-11T09:14:50.274Z,96580.56
2023-03-11T09:18:53.518Z,96586.41
2023-03-11T09:22:56.493Z,96580.13
2023-03-11T09:26:59.893Z,96597.75
2023-03-11T09:31:04.350Z,96607.47
2023-03-11T09:35:08.273Z,96609.53
2023-03-11T09:39:11.344Z,96616.38
2023-03-11T09:43:27.465Z,96626.59
2023-03-11T09:47:48.836Z,96624.13
2023-03-11T09:51:59.638Z,96616.53
2023-03-11T09:56:07.511Z,96629.44
2023-03-11T10:00:14.661Z,96639.66
2023-03-11T10:04:27.042Z,96637.84
2023-03-11T10:08:38.279Z,96645.38
2023-03-11T10:12:50.863Z,96640.19
2023-03-11T10:17:02.999Z,96648.59
2023-03-11T10:21:16.057Z,96645.19
2023-03-11T10:25:23.437Z,96631.97
2023-03-11T10:29:29.004Z,96638.84
2023-03-11T10:33:39.964Z,96643.88
2023-03-11T10:37:50.211Z,96641.75
2023-03-11T10:41:56.790Z,96652.97
2023-03-11T10:46:00.490Z,96676.09
2023-03-11T10:50:04.877Z,96663.47
2023-03-11T10:54:09.153Z,96668.31
2023-03-11T10:58:15.734Z,96651.78
2023-03-11T11:02:28.905Z,96663.22
2023-03-11T11:06:34.375Z,96643.19
2023-03-11T11:10:49.986Z,96650.75
2023-03-11T11:14:55.749Z,96648.06
2023-03-11T11:19:04.319Z,96650.03
2023-03-11T11:23:08.108Z,96638.41
2023-03-11T11:27:18.408Z,96638.72
2023-03-11T11:31:25.160Z,96630.63
2023-03-11T11:35:28.179Z,96628.16
2023-03-11T11:39:38.334Z,96643.66
2023-03-11T11:43:50.776Z,96644.09
2023-03-11T11:47:57.067Z,96643.41
2023-03-11T11:52:07.148Z,96651.53
2023-03-11T11:56:10.438Z,96658.06
2023-03-11T12:00:25.586Z,96649.81
2023-03-11T12:04:39.363Z,96658.75
2023-03-11T12:08:47.917Z,96662.31
2023-03-11T12:13:15.705Z,96651.59
2023-03-11T12:17:23.686Z,96661.97
2023-03-11T12:21:42.004Z,96657.94
2023-03-11T12:26:04.637Z,96654.19
2023-03-11T12:30:16.748Z,96653.97
2023-03-11T12:34:24.958Z,96655.72
2023-03-11T12:38:34.598Z,96660.31
2023-03-11T12:42:41.622Z,96670.75
2023-03-11T12:47:24.256Z,96676.63
2023-03-11T12:51:42.154Z,96673.91
2023-03-11T12:56:04.207Z,96672.47
2023-03-11T13:00:23.158Z,96681.31
2023-03-11T13:04:37.635Z,96675.38
2023-03-11T13:08:48.442Z,96685.88
2023-03-11T13:12:53.366Z,96686.63
2023-03-11T13:16:56.950Z,96704.31
2023-03-11T13:21:02.105Z,96707.88
2023-03-11T13:30:02.380Z,96723.03
2023-03-11T13:34:16.028Z,96722.06
2023-03-11T13:38:43.227Z,96726.41
2023-03-11T13:42:49.175Z,96742.84
2023-03-11T13:46:58.319Z,96731.41
2023-03-11T13:51:05.814Z,96739.97
2023-03-11T13:55:17.449Z,96745.69
2023-03-11T13:59:24.899Z,96752.72
2023-03-11T14:03:35.241Z,96756.75
2023-03-11T14:07:38.761Z,96760.41
2023-03-11T14:11:47.940Z,96764.66
2023-03-11T14:16:01.732Z,96773.59
2023-03-11T14:20:16.832Z,96768.63
2023-03-11T14:24:23.267Z,96771.41
2023-03-11T14:28:30.213Z,96774.81
2023-03-11T14:32:35.422Z,96783.09
2023-03-11T14:36:45.594Z,96778.22
2023-03-11T14:40:55.247Z,96780.47
2023-03-11T14:45:05.316Z,96768.78
2023-03-11T14:49:09.754Z,96787.56
2023-03-11T14:53:21.115Z,96788.34
2023-03-11T14:57:30.436Z,96799.34
2023-03-11T15:01:36.945Z,96796.13
2023-03-11T15:05:45.702Z,96800.81
2023-03-11T15:09:50.603Z,96815.78
2023-03-11T15:13:54.635Z,96818.84
2023-03-11T15:18:00.543Z,96816.09
2023-03-11T15:22:22.641Z,96826.66
2023-03-11T15:26:29.878Z,96828.63
2023-03-11T15:34:35.806Z,96848.91
2023-03-11T15:38:38.746Z,96850.34
2023-03-11T15:42:43.595Z,96848.38
2023-03-11T15:46:47.458Z,96854.19
2023-03-11T15:50:53.619Z,96850.94
2023-03-11T15:54:57.163Z,96852.19
2023-03-11T15:59:02.100Z,96863.13
2023-03-11T16:03:05.654Z,96873.75
2023-03-11T16:07:09.376Z,96876.91
2023-03-11T16:11:14.101Z,96895.59
2023-03-11T16:15:25.155Z,96903.41
2023-03-11T16:19:28.413Z,96901.97
2023-03-11T16:23:50.175Z,96914.97
2023-03-11T16:27:55.210Z,96916.28
2023-03-11T16:31:59.848Z,96921.44
2023-03-11T16:36:03.617Z,96913.69
2023-03-11T16:40:08.307Z,96921.66
2023-03-11T16:44:11.539Z,96926.06
2023-03-11T16:48:16.311Z,96946.63
2023-03-11T16:52:20.955Z,96957.66
2023-03-11T16:56:24.442Z,96948.72
2023-03-11T17:00:27.482Z,96965.59
2023-03-11T17:04:32.231Z,96979.72
2023-03-11T17:08:35.339Z,96975.94
2023-03-11T17:12:38.662Z,96984.94
2023-03-11T17:16:41.564Z,96996.38
2023-03-11T17:20:46.222Z,97005.34
2023-03-11T17:24:49.104Z,97013.38
2023-03-11T17:28:52.241Z,97018.66
2023-03-11T17:32:55.206Z,97021.66
2023-03-11T17:36:59.842Z,97024.22
2023-03-11T17:41:08.115Z,97029.41
2023-03-11T17:45:12.372Z,97036.44
2023-03-11T17:49:16.248Z,97029.28
2023-03-11T17:53:20.881Z,97042.84
2023-03-11T17:57:23.980Z,97044.06
2023-03-11T18:01:29.040Z,97050.47
2023-03-11T18:05:32.142Z,97057.00
2023-03-11T18:09:36.810Z,97058.03
2023-03-11T18:13:40.457Z,97067.00
2023-03-11T18:17:43.816Z,97066.47
2023-03-11T18:21:47.086Z,97070.94
2023-03-11T18:25:55.009Z,97073.66
2023-03-11T18:29:58.709Z,97077.31
2023-03-11T18:34:03.553Z,97075.84
2023-03-11T18:38:06.708Z,97077.44
2023-03-11T18:42:11.730Z,97095.34
2023-03-11T18:46:20.649Z,97104.31
2023-03-11T18:50:23.939Z,97098.44
2023-03-11T18:54:27.680Z,97114.34
2023-03-11T18:58:32.604Z,97110.94
2023-03-11T19:02:35.508Z,97110.28
2023-03-11T19:06:38.776Z,97118.28
2023-03-11T19:10:42.032Z,97115.28
2023-03-11T19:14:46.653Z,97118.53
2023-03-11T19:18:53.396Z,97119.59
2023-03-11T19:22:56.742Z,97123.25
2023-03-11T19:26:59.935Z,97117.44
2023-03-11T19:31:05.431Z,97111.59
2023-03-11T19:35:11.136Z,97122.84
2023-03-11T19:39:14.625Z,97118.91
2023-03-11T19:43:19.345Z,97113.78
2023-03-11T19:47:24.910Z,97125.69
2023-03-11T19:51:32.927Z,97120.94
2023-03-11T19:55:44.688Z,97119.69
2023-03-11T19:59:47.950Z,97135.03
2023-03-11T20:03:53.726Z,97130.69
2023-03-11T20:07:59.140Z,97141.81
2023-03-11T20:12:03.429Z,97138.00
2023-03-11T20:16:09.482Z,97149.84
2023-03-11T20:20:14.827Z,97146.19
2023-03-11T20:24:19.361Z,97150.00
2023-03-11T20:28:22.766Z,97152.44
2023-03-11T20:32:25.899Z,97158.41
2023-03-11T20:36:33.422Z,97168.72
2023-03-11T20:40:36.455Z,97171.44
2023-03-11T20:44:39.992Z,97170.59
2023-03-11T20:48:44.322Z,97172.22
2023-03-11T20:52:49.265Z,97177.25
2023-03-11T20:56:52.256Z,97176.59
2023-03-11T21:00:55.777Z,97189.47
2023-03-11T21:04:59.041Z,97192.84
2023-03-11T21:09:06.285Z,97195.41
2023-03-11T21:13:09.300Z,97190.53
2023-03-11T21:17:12.889Z,97193.38
2023-03-11T21:21:17.482Z,97197.03
2023-03-11T21:25:22.498Z,97190.38
2023-03-11T21:29:25.475Z,97188.06
2023-03-11T21:33:29.265Z,97190.88
2023-03-11T21:37:32.526Z,97189.53
2023-03-11T21:41:40.390Z,97193.44
2023-03-11T21:45:43.760Z,97194.06
2023-03-11T21:49:47.046Z,97192.13
2023-03-11T21:53:53.120Z,97191.84
2023-03-11T21:57:57.759Z,97198.69
2023-03-11T22:02:03.314Z,97201.06
2023-03-11T22:06:09.637Z,97199.94
2023-03-11T22:10:12.981Z,97200.44
2023-03-11T22:14:17.615Z,97197.44
2023-03-11T22:18:20.489Z,97199.69
2023-03-11T22:22:23.784Z,97201.00
2023-03-11T22:26:26.921Z,97209.09
2023-03-11T22:30:32.179Z,97207.84
2023-03-11T22:34:35.113Z,97205.09
2023-03-11T22:38:41.954Z,97211.66
2023-03-11T22:42:45.058Z,97211.72
2023-03-11T22:46:49.692Z,97218.66
2023-03-11T22:50:52.599Z,97227.44
2023-03-11T22:54:55.983Z,97226.03
2023-03-11T22:58:59.514Z,97230.41
2023-03-11T23:03:04.798Z,97228.53
2023-03-11T23:07:07.734Z,97228.41
2023-03-11T23:11:13.414Z,97234.06
2023-03-11T23:15:17.968Z,97236.13
2023-03-11T23:19:22.812Z,97249.31
2023-03-11T23:23:26.140Z,97260.88
2023-03-11T23:27:30.556Z,97252.72
2023-03-11T23:31:33.726Z,97257.25
2023-03-11T23:35:42.344Z,97255.84
2023-03-11T23:39:45.575Z,97255.25
2023-03-11T23:43:48.733Z,97256.19
2023-03-11T23:47:51.748Z,97258.16
2023-03-11T23:51:58.203Z,97260.97
2023-03-11T23:56:01.383Z,97264.78
